Terminal Aerodrome Forecast
Issued by NWS Cleveland, OH

Home | Current Version | Previous Version | Text Only | Print | Product List | Glossary On
Versions: 1 2 3 4 5 6 7 8 9 10 11 12 13 14 15 16 17 18 19 20 21 22 23 24 25 26 27 28 29
000
FTUS41 KCLE 011100
TAFCLE
TAF
KCLE 011120Z 0112/0218 20005KT P6SM BKN012 BKN030
      TEMPO 0112/0115 SCT012 BKN030
     FM011500 21008KT P6SM SCT020 BKN045
      TEMPO 0115/0118 BKN020
     FM011800 21012G18KT P6SM SCT045
     FM020200 20010KT P6SM VCSH SCT035 BKN120
     FM020600 20010KT 5SM HZ VCTS BKN035CB
     FM021200 22012KT 5SM BR BKN050=

USA.gov is the U.S. government's official web portal to all federal, state and local government web resources and services.